Time;durP1;ratioP1;P1;durP2;ratioP2;P2;SDS_P1;SDS_P2;PMS_P1;PMS_P2;Temp;Humidity;BMP_temperature;BMP_pressure;BME280_temperature;BME280_humidity;BME280_pressure;Samples;Min_cycle;Max_cycle;Signal;HPM_P1;HPM_P2
2022/08/15 00:01:43;;;;;;;38.80;35.00;;;;;;;20.82;74.76;99743.48;110170;1257;21959;-77
2022/08/15 00:04:12;;;;;;;36.40;33.10;;;;;;;20.80;74.85;99742.93;110378;1250;24283;-77
2022/08/15 00:07:07;;;;;;;;;;;;;;;20.77;74.85;99744.17;110589;1253;21958;-77
2022/08/15 00:09:46;;;;;;;34.30;31.30;;;;;;;20.66;75.02;99744.36;110748;1250;21956;-77
2022/08/15 00:12:27;;;;;;;36.00;32.90;;;;;;;20.62;75.08;99747.09;110553;1250;23017;-77
2022/08/15 00:15:16;;;;;;;34.00;31.00;;;;;;;20.60;75.14;99744.06;110690;1253;22031;-77
2022/08/15 00:17:51;;;;;;;36.40;33.00;;;;;;;20.57;75.09;99745.01;110424;1253;21983;-77
2022/08/15 00:20:30;;;;;;;37.40;34.20;;;;;;;20.56;75.20;99744.98;110687;1253;24305;-77
2022/08/15 00:23:18;;;;;;;34.70;31.80;;;;;;;20.53;75.27;99741.12;110434;1253;21975;-77
2022/08/15 00:26:15;;;;;;;34.10;31.00;;;;;;;20.49;75.27;99736.44;107613;1250;3830910;-77
2022/08/15 00:29:07;;;;;;;35.00;31.90;;;;;;;20.45;75.48;99738.52;110080;1257;21972;-77
2022/08/15 00:31:45;;;;;;;37.30;34.20;;;;;;;20.41;75.49;99741.63;109848;1260;21982;-77
2022/08/15 00:34:25;;;;;;;34.40;31.40;;;;;;;20.37;75.56;99743.52;109615;1260;23137;-77
2022/08/15 00:37:08;;;;;;;36.70;33.00;;;;;;;20.32;75.63;99744.30;109783;1260;22036;-77
2022/08/15 00:39:39;;;;;;;34.90;32.00;;;;;;;20.31;75.87;99745.41;109264;1261;23000;-76
2022/08/15 00:42:12;;;;;;;34.40;31.50;;;;;;;20.32;75.95;99740.06;109465;1261;21965;-77
2022/08/15 00:44:49;;;;;;;35.20;32.00;;;;;;;20.32;75.80;99739.23;109341;1263;21996;-76
2022/08/15 00:47:40;;;;;;;36.00;32.60;;;;;;;20.28;75.89;99744.98;110003;1256;21965;-76
2022/08/15 00:50:14;;;;;;;36.60;33.60;;;;;;;20.27;75.80;99742.55;110267;1256;22265;-76
2022/08/15 00:53:09;;;;;;;36.80;33.30;;;;;;;20.24;75.93;99743.05;110368;1256;21962;-76
2022/08/15 00:55:44;;;;;;;37.60;34.20;;;;;;;20.20;76.09;99745.85;110260;1256;22902;-77
2022/08/15 00:58:16;;;;;;;37.20;33.70;;;;;;;20.20;76.17;99744.77;109841;1261;21983;-77
2022/08/15 01:01:14;;;;;;;34.40;31.30;;;;;;;20.18;76.07;99746.61;109901;1260;22158;-76
2022/08/15 01:03:49;;;;;;;34.60;31.40;;;;;;;20.15;76.06;99744.86;109880;1260;21990;-76
2022/08/15 01:06:25;;;;;;;33.80;30.70;;;;;;;20.14;76.16;99742.98;109674;1260;22142;-76
2022/08/15 01:09:06;;;;;;;33.00;30.00;;;;;;;20.12;76.27;99742.19;109938;1260;21971;-76
2022/08/15 01:12:26;;;;;;;32.30;29.30;;;;;;;20.10;76.30;99739.10;109162;1267;22971;-76
2022/08/15 01:15:14;;;;;;;33.80;30.70;;;;;;;20.06;76.52;99733.02;109348;1261;23605;-77
2022/08/15 01:17:45;;;;;;;34.40;31.40;;;;;;;20.02;76.34;99734.27;108874;1267;22020;-77
2022/08/15 01:20:32;;;;;;;36.40;33.20;;;;;;;20.00;76.45;99736.42;108982;1267;23164;-77
2022/08/15 01:23:14;;;;;;;35.80;32.70;;;;;;;20.00;76.62;99740.13;109290;1264;23832;-76
2022/08/15 01:26:07;;;;;;;33.80;30.70;;;;;;;20.00;76.70;99746.08;109548;1262;21983;-77
2022/08/15 01:29:03;;;;;;;33.50;30.60;;;;;;;19.98;76.75;99746.74;109409;1260;23102;-77
2022/08/15 01:31:52;;;;;;;34.00;30.70;;;;;;;19.98;76.70;99748.84;109812;1258;22034;-77
2022/08/15 01:34:24;;;;;;;31.90;29.20;;;;;;;19.97;76.46;99745.54;109518;1263;22074;-77
2022/08/15 01:37:02;;;;;;;32.90;30.00;;;;;;;19.95;76.71;99742.08;109832;1258;21983;-77
2022/08/15 01:40:02;;;;;;;31.80;29.00;;;;;;;19.94;76.71;99741.63;109788;1258;22064;-77
2022/08/15 01:42:45;;;;;;;32.70;29.60;;;;;;;19.93;76.68;99743.28;109929;1258;22844;-78
2022/08/15 01:45:30;;;;;;;33.40;30.70;;;;;;;19.92;76.77;99745.73;110149;1259;24272;-76
2022/08/15 01:48:24;;;;;;;32.80;30.00;;;;;;;19.92;76.64;99741.45;110096;1256;22031;-76
2022/08/15 01:51:12;;;;;;;31.90;28.80;;;;;;;19.92;76.69;99743.80;110155;1257;24427;-77
2022/08/15 01:53:58;;;;;;;30.10;27.40;;;;;;;19.90;76.89;99743.61;109993;1257;23576;-77
2022/08/15 01:56:43;;;;;;;31.30;28.50;;;;;;;19.89;76.89;99738.19;110240;1257;23123;-77
2022/08/15 01:59:22;;;;;;;34.30;31.10;;;;;;;19.90;76.78;99738.95;110448;1253;22441;-76
2022/08/15 02:02:10;;;;;;;29.20;26.70;;;;;;;19.89;76.75;99740.16;110727;1251;21959;-78
2022/08/15 02:05:00;;;;;;;31.20;28.40;;;;;;;19.88;76.67;99744.27;110516;1251;21976;-77
2022/08/15 02:07:35;;;;;;;29.10;26.40;;;;;;;19.88;76.68;99745.45;110586;1251;22021;-77
2022/08/15 02:10:20;;;;;;;31.00;28.40;;;;;;;19.87;76.66;99740.78;109973;1257;23589;-77
2022/08/15 02:13:09;;;;;;;29.90;27.50;;;;;;;19.87;76.63;99742.86;109221;1264;21976;-76
2022/08/15 02:15:52;;;;;;;29.20;26.70;;;;;;;19.85;76.61;99747.34;109355;1263;21980;-78
2022/08/15 02:18:35;;;;;;;29.70;27.10;;;;;;;19.84;76.57;99741.90;108800;1270;23825;-77
2022/08/15 02:21:15;;;;;;;28.60;26.20;;;;;;;19.79;76.49;99738.67;108781;1270;23057;-77
2022/08/15 02:23:46;;;;;;;29.20;26.10;;;;;;;19.78;76.56;99737.68;108840;1270;22056;-77
2022/08/15 02:26:29;;;;;;;30.00;27.40;;;;;;;19.77;76.68;99736.22;108948;1267;21984;-77
2022/08/15 02:29:07;;;;;;;27.90;25.50;;;;;;;19.74;76.47;99730.38;109242;1264;21992;-78
2022/08/15 02:31:51;;;;;;;30.10;27.30;;;;;;;19.70;76.51;99733.31;109427;1258;21981;-78
2022/08/15 02:34:37;;;;;;;30.70;27.80;;;;;;;19.62;76.43;99731.35;110186;1257;22020;-77
2022/08/15 02:37:33;;;;;;;30.90;28.20;;;;;;;19.57;76.50;99731.88;110560;1250;22046;-76
2022/08/15 02:40:12;;;;;;;31.90;29.20;;;;;;;19.54;76.76;99725.99;110713;1250;22307;-77
2022/08/15 02:43:10;;;;;;;32.50;29.50;;;;;;;19.53;76.90;99716.88;110560;1250;23055;-75
2022/08/15 02:45:47;;;;;;;31.80;28.70;;;;;;;19.52;76.96;99712.98;110605;1250;22410;-77
2022/08/15 02:48:38;;;;;;;29.70;26.90;;;;;;;19.50;77.00;99705.67;110432;1253;22060;-76
2022/08/15 02:51:19;;;;;;;32.00;29.00;;;;;;;19.51;77.11;99702.25;110766;1250;21958;-77
2022/08/15 02:53:59;;;;;;;30.20;27.10;;;;;;;19.50;76.83;99700.95;110779;1250;21975;-77
2022/08/15 02:56:49;;;;;;;29.30;26.70;;;;;;;19.48;76.71;99699.59;110567;1250;22050;-77
2022/08/15 02:59:24;;;;;;;31.10;28.10;;;;;;;19.48;76.82;99697.55;110581;1250;23589;-76
2022/08/15 03:01:57;;;;;;;31.20;28.30;;;;;;;19.46;76.91;99698.16;110680;1253;21953;-77
2022/08/15 03:04:30;;;;;;;29.60;27.10;;;;;;;19.45;76.79;99697.52;110694;1250;24293;-78
2022/08/15 03:07:01;;;;;;;30.50;27.70;;;;;;;19.44;76.77;99693.36;110748;1250;21963;-77
2022/08/15 03:09:32;;;;;;;29.70;27.00;;;;;;;19.42;76.81;99685.19;110715;1250;22829;-77
2022/08/15 03:12:14;;;;;;;29.30;26.70;;;;;;;19.40;76.74;99683.23;110759;1250;22040;-77
2022/08/15 03:15:07;;;;;;;31.50;28.50;;;;;;;19.38;76.83;99682.16;110733;1250;21956;-78
2022/08/15 03:17:38;;;;;;;28.80;26.20;;;;;;;19.38;77.00;99684.95;110488;1253;21982;-77
2022/08/15 03:20:20;;;;;;;27.80;25.30;;;;;;;19.38;77.00;99683.30;110825;1250;22193;-77
2022/08/15 03:23:00;;;;;;;28.60;25.80;;;;;;;19.38;76.93;99679.64;110717;1250;23121;-77
2022/08/15 03:25:48;;;;;;;27.30;24.80;;;;;;;19.37;76.98;99680.27;110510;1251;24432;-77
2022/08/15 03:28:31;;;;;;;26.30;24.00;;;;;;;19.36;76.76;99676.02;110285;1256;21978;-76
2022/08/15 03:31:09;;;;;;;25.90;23.70;;;;;;;19.34;76.69;99679.79;110210;1256;23650;-77
2022/08/15 03:33:45;;;;;;;25.30;22.90;;;;;;;19.30;76.70;99681.92;110119;1256;22072;-77
2022/08/15 03:36:27;;;;;;;24.40;22.10;;;;;;;19.27;76.97;99681.08;110402;1256;22085;-76
2022/08/15 03:39:00;;;;;;;24.20;22.00;;;;;;;19.24;76.92;99684.55;110003;1261;21982;-76
2022/08/15 03:41:32;;;;;;;24.10;21.60;;;;;;;19.18;76.79;99684.66;109615;1260;22074;-77
2022/08/15 03:44:08;;;;;;;24.70;22.40;;;;;;;19.13;76.92;99682.32;109286;1264;22278;-77
2022/08/15 03:46:57;;;;;;;24.30;22.00;;;;;;;19.10;77.19;99680.33;109283;1261;23571;-77
2022/08/15 03:49:36;;;;;;;24.40;22.30;;;;;;;19.09;77.42;99678.65;109992;1259;23122;-76
2022/08/15 03:52:46;;;;;;;23.00;20.90;;;;;;;19.09;77.48;99679.23;110140;1259;24419;-76
2022/08/15 03:55:33;;;;;;;23.80;21.70;;;;;;;19.07;77.70;99678.61;110014;1259;23613;-78
2022/08/15 03:58:10;;;;;;;24.00;21.80;;;;;;;19.09;77.77;99678.33;110143;1256;22059;-77
2022/08/15 04:01:17;;;;;;;25.30;22.90;;;;;;;19.11;77.82;99683.30;110253;1256;21963;-77
2022/08/15 04:04:05;;;;;;;23.10;20.80;;;;;;;19.12;77.79;99687.32;110600;1250;23558;-77
2022/08/15 04:06:58;;;;;;;23.30;21.10;;;;;;;19.12;77.71;99690.28;110705;1250;23023;-78
2022/08/15 04:09:43;;;;;;;22.60;20.40;;;;;;;19.13;77.76;99692.65;110628;1250;22229;-77
2022/08/15 04:12:35;;;;;;;22.30;20.10;;;;;;;19.14;77.70;99692.41;110731;1250;23023;-77
2022/08/15 04:15:20;;;;;;;21.90;20.10;;;;;;;19.14;77.66;99692.92;110265;1253;22187;-76
2022/08/15 04:17:52;;;;;;;22.90;20.80;;;;;;;19.14;77.89;99689.78;110434;1252;22459;-77
2022/08/15 04:20:30;;;;;;;22.60;20.30;;;;;;;19.15;77.96;99691.03;109930;1259;23794;-76
2022/08/15 04:23:07;;;;;;;22.90;20.60;;;;;;;19.20;77.95;99690.69;109611;1260;23062;-77
2022/08/15 04:25:42;;;;;;;22.90;20.80;;;;;;;19.23;77.95;99692.19;109940;1261;22096;-78
2022/08/15 04:28:31;;;;;;;21.40;19.30;;;;;;;19.25;77.88;99695.50;109539;1261;24045;-77
2022/08/15 04:31:34;;;;;;;20.20;18.40;;;;;;;19.28;77.92;99694.33;109849;1260;25022;-77
2022/08/15 04:34:15;;;;;;;21.60;19.50;;;;;;;19.31;77.88;99694.06;109789;1258;22912;-77
2022/08/15 04:37:12;;;;;;;20.70;18.70;;;;;;;19.35;77.89;99689.93;110151;1257;21972;-78
2022/08/15 04:39:48;;;;;;;25.00;20.00;;;;;;;19.38;77.74;99689.77;110470;1250;21959;-75
2022/08/15 04:42:21;;;;;;;20.70;18.90;;;;;;;19.43;77.86;99691.95;110574;1250;24570;-77
2022/08/15 04:44:52;;;;;;;20.00;18.00;;;;;;;19.50;77.87;99695.48;110741;1250;21972;-76
2022/08/15 04:47:26;;;;;;;20.10;18.20;;;;;;;19.57;77.81;99696.40;110680;1250;23689;-76
2022/08/15 04:50:10;;;;;;;20.00;17.70;;;;;;;19.64;77.63;99696.11;110822;1251;22069;-77
2022/08/15 04:53:00;;;;;;;19.10;17.20;;;;;;;19.70;77.43;99699.27;110589;1251;22414;-77
2022/08/15 04:55:44;;;;;;;21.70;18.60;;;;;;;19.72;77.19;99702.16;110745;1250;22072;-76
2022/08/15 04:58:19;;;;;;;18.30;16.80;;;;;;;19.76;77.10;99700.66;110736;1250;21970;-77
2022/08/15 05:01:14;;;;;;;19.70;17.10;;;;;;;19.81;76.96;99698.75;110509;1250;21962;-77
2022/08/15 05:03:54;;;;;;;18.30;16.80;;;;;;;19.87;76.77;99694.56;110594;1250;23580;-78
2022/08/15 05:06:40;;;;;;;18.40;16.80;;;;;;;19.94;76.72;99692.32;110064;1259;22049;-78
2022/08/15 05:09:23;;;;;;;18.20;16.40;;;;;;;20.03;76.52;99690.83;110116;1258;23718;-77
2022/08/15 05:12:19;;;;;;;17.80;16.10;;;;;;;20.10;76.06;99690.02;110191;1256;23748;-77
2022/08/15 05:14:52;;;;;;;17.60;15.80;;;;;;;20.17;75.99;99696.71;109592;1262;21979;-77
2022/08/15 05:17:28;;;;;;;16.00;14.50;;;;;;;20.25;75.87;99697.17;108653;1270;23863;-75
2022/08/15 05:20:21;;;;;;;16.80;15.20;;;;;;;20.33;75.63;99694.85;108791;1269;21996;-77
2022/08/15 05:23:02;;;;;;;16.90;15.40;;;;;;;20.42;75.41;99692.13;108579;1270;23593;-77
2022/08/15 05:25:50;;;;;;;21.40;16.40;;;;;;;20.51;75.10;99690.39;108900;1267;21975;-77
2022/08/15 05:28:21;;;;;;;18.10;15.80;;;;;;;20.58;74.76;99688.13;109114;1267;23225;-77
2022/08/15 05:31:06;;;;;;;16.50;15.00;;;;;;;20.65;74.47;99685.20;108984;1264;22009;-77
2022/08/15 05:34:03;;;;;;;19.30;16.70;;;;;;;20.75;74.53;99683.11;109922;1258;22011;-76
2022/08/15 05:36:59;;;;;;;;;;;;;;;;;;;;;
2022/08/15 05:39:32;;;;;;;17.90;16.20;;;;;;;20.97;74.21;99678.14;110248;1256;21965;-77
2022/08/15 05:42:54;;;;;;;17.40;16.00;;;;;;;21.11;73.87;99680.87;109732;1260;22050;-77
2022/08/15 05:45:46;;;;;;;18.20;15.70;;;;;;;21.27;73.57;99676.89;110298;1256;21953;-76
2022/08/15 05:48:31;;;;;;;16.60;14.80;;;;;;;21.45;73.39;99669.50;109548;1264;23075;-77
2022/08/15 05:51:46;;;;;;;16.80;15.20;;;;;;;21.68;73.22;99665.81;109326;1261;23842;-78
2022/08/15 05:54:58;;;;;;;16.70;14.90;;;;;;;21.93;72.79;99673.03;109524;1261;24407;-77
2022/08/15 05:57:43;;;;;;;15.50;13.70;;;;;;;22.20;72.54;99666.55;109097;1261;23054;-76
2022/08/15 06:00:28;;;;;;;16.20;14.60;;;;;;;22.52;72.02;99664.92;109011;1267;21989;-77
2022/08/15 06:03:17;;;;;;;16.30;14.30;;;;;;;22.81;71.21;99661.54;108822;1267;23622;-77
2022/08/15 06:06:02;;;;;;;15.60;13.90;;;;;;;23.13;70.49;99659.58;108732;1270;22048;-76
2022/08/15 06:09:32;;;;;;;15.10;13.40;;;;;;;23.52;70.04;99659.48;108974;1267;22972;-77
2022/08/15 06:12:46;;;;;;;14.80;13.40;;;;;;;23.91;68.25;99659.48;108673;1273;22038;-77
2022/08/15 06:15:30;;;;;;;17.70;13.60;;;;;;;24.22;67.25;99652.40;108439;1273;23747;-77
2022/08/15 06:18:09;;;;;;;14.40;13.20;;;;;;;24.61;66.69;99654.80;108793;1267;21991;-77
2022/08/15 06:21:03;;;;;;;14.50;13.10;;;;;;;24.87;65.04;99655.70;108790;1270;21986;-78
2022/08/15 06:24:02;;;;;;;14.30;13.10;;;;;;;25.18;64.41;99657.58;108661;1270;22036;-76
2022/08/15 06:26:55;;;;;;;13.40;12.20;;;;;;;25.40;62.86;99658.66;108718;1270;23746;-76
2022/08/15 06:30:12;;;;;;;13.50;12.20;;;;;;;25.49;61.85;99659.40;108871;1264;22401;-76
2022/08/15 06:33:03;;;;;;;14.80;13.20;;;;;;;25.60;62.23;99658.87;109082;1270;23065;-76
2022/08/15 06:35:54;;;;;;;14.50;11.40;;;;;;;25.85;61.81;99660.72;108878;1270;23637;-78
2022/08/15 06:38:38;;;;;;;12.70;11.50;;;;;;;26.08;61.12;99661.95;108823;1270;21978;-77
2022/08/15 06:42:00;;;;;;;13.40;12.10;;;;;;;26.34;60.51;99655.76;108878;1264;21969;-77
2022/08/15 06:44:51;;;;;;;12.50;11.40;;;;;;;26.73;59.98;99660.33;108647;1273;22898;-76
2022/08/15 06:47:24;;;;;;;15.00;11.40;;;;;;;27.08;59.03;99665.69;108615;1273;21988;-75
2022/08/15 06:50:08;;;;;;;14.20;11.20;;;;;;;27.34;57.65;99667.21;108435;1273;22037;-75
2022/08/15 06:52:57;;;;;;;14.50;11.60;;;;;;;27.46;56.42;99662.14;108922;1267;23706;-75
2022/08/15 06:55:44;;;;;;;11.90;10.80;;;;;;;27.50;56.03;99660.61;108362;1275;22010;-75
2022/08/15 06:58:24;;;;;;;12.40;11.20;;;;;;;27.60;56.63;99657.45;108325;1276;23052;-76
2022/08/15 07:01:44;;;;;;;;;;;;;;;27.71;55.51;99656.13;108349;1276;21985;-75
2022/08/15 07:04:54;;;;;;;13.80;11.10;;;;;;;27.73;55.99;99658.42;108360;1278;21995;-77
2022/08/15 07:07:45;;;;;;;11.20;10.10;;;;;;;28.00;56.38;99658.82;108562;1272;23927;-76
2022/08/15 07:10:44;;;;;;;13.00;11.20;;;;;;;28.36;55.48;99663.48;108574;1273;22223;-75
2022/08/15 07:13:29;;;;;;;14.30;11.30;;;;;;;28.59;54.73;99666.16;108691;1265;23535;-76
2022/08/15 07:16:38;;;;;;;12.50;10.70;;;;;;;28.84;53.76;99664.25;108871;1264;23039;-76
2022/08/15 07:19:14;;;;;;;12.10;11.00;;;;;;;29.03;52.51;99669.73;109245;1264;22254;-75
2022/08/15 07:22:09;;;;;;;14.70;12.00;;;;;;;29.27;52.03;99672.48;109638;1256;23708;-76
2022/08/15 07:24:56;;;;;;;13.10;11.60;;;;;;;29.49;51.99;99667.10;110068;1256;21969;-74
2022/08/15 07:27:36;;;;;;;11.80;10.70;;;;;;;29.76;51.43;99663.50;110411;1256;21973;-74
2022/08/15 07:30:44;;;;;;;13.40;12.10;;;;;;;29.98;50.75;99665.21;109724;1262;22076;-76
2022/08/15 07:33:47;;;;;;;13.80;12.10;;;;;;;30.20;50.16;99666.77;109737;1260;22078;-73
2022/08/15 07:36:34;;;;;;;16.50;10.80;;;;;;;30.38;49.57;99671.92;110035;1258;21974;-76
2022/08/15 07:39:38;;;;;;;12.40;11.10;;;;;;;30.58;48.87;99676.30;110411;1257;21976;-76
2022/08/15 07:42:21;;;;;;;13.90;10.20;;;;;;;30.61;48.55;99673.33;110236;1259;23677;-75
2022/08/15 07:45:25;;;;;;;12.80;11.50;;;;;;;30.71;48.41;99669.75;109878;1257;22445;-77
2022/08/15 07:48:26;;;;;;;11.80;10.70;;;;;;;30.79;47.95;99667.87;110386;1253;21974;-76
2022/08/15 07:51:25;;;;;;;16.40;11.10;;;;;;;30.89;47.84;99667.09;110632;1250;23676;-75
2022/08/15 07:54:46;;;;;;;13.10;11.20;;;;;;;31.02;47.69;99665.13;110005;1259;22122;-75
2022/08/15 07:57:41;;;;;;;12.50;11.40;;;;;;;31.27;47.40;99670.62;109330;1263;23142;-76
2022/08/15 08:00:34;;;;;;;14.20;12.60;;;;;;;31.29;46.45;99667.89;108988;1268;23624;-75
2022/08/15 08:03:40;;;;;;;14.30;11.90;;;;;;;31.10;45.75;99663.30;109049;1266;22044;-75
2022/08/15 08:06:32;;;;;;;15.60;11.40;;;;;;;30.88;46.17;99658.95;108893;1267;22126;-75
2022/08/15 08:09:42;;;;;;;12.80;11.10;;;;;;;30.91;46.84;99661.05;109186;1267;23245;-75
2022/08/15 08:12:43;;;;;;;14.10;12.70;;;;;;;31.18;47.41;99658.70;109453;1261;23038;-75
2022/08/15 08:15:34;;;;;;;;;;;;;;;31.49;46.15;99654.41;109899;1257;23088;-75
2022/08/15 08:19:10;;;;;;;13.70;11.50;;;;;;;31.54;45.63;99652.23;110537;1250;22001;-76
2022/08/15 08:22:00;;;;;;;17.60;12.60;;;;;;;31.43;45.37;99654.37;110836;1250;23044;-74
2022/08/15 08:25:37;;;;;;;13.10;11.70;;;;;;;31.24;45.99;99653.38;110761;1250;23685;-76
2022/08/15 08:28:46;;;;;;;12.50;11.30;;;;;;;31.08;45.99;99659.35;110043;1259;22042;-76
2022/08/15 08:31:30;;;;;;;;;;;;;;;31.10;46.89;99663.14;110007;1259;22072;-75
2022/08/15 08:34:13;;;;;;;15.10;11.20;;;;;;;31.22;46.60;99664.93;110297;1257;22244;-75
2022/08/15 08:37:51;;;;;;;13.70;11.80;;;;;;;31.27;45.80;99662.86;110068;1259;23055;-76
2022/08/15 08:44:08;;;;;;;14.60;11.60;;;;;;;31.32;46.02;99655.16;109583;1264;23892;-76
2022/08/15 08:47:26;;;;;;;13.00;11.70;;;;;;;31.58;44.77;99658.80;108801;1270;23720;-76
2022/08/15 08:50:38;;;;;;;14.70;11.70;;;;;;;31.47;43.90;99651.05;108384;1276;22227;-76
2022/08/15 08:53:55;;;;;;;16.30;12.40;;;;;;;31.28;43.99;99652.95;108355;1276;23611;-75
2022/08/15 08:56:33;;;;;;;12.70;10.40;;;;;;;31.41;44.32;99653.27;108069;1281;23106;-76
2022/08/15 08:59:22;;;;;;;14.00;11.80;;;;;;;31.68;44.90;99650.77;108200;1276;22313;-76
2022/08/15 09:02:08;;;;;;;14.20;11.70;;;;;;;32.12;44.19;99649.47;108413;1276;23616;-76
2022/08/15 09:04:57;;;;;;;14.90;11.90;;;;;;;32.30;42.98;99656.52;108277;1279;22077;-75
2022/08/15 09:07:37;;;;;;;11.90;10.70;;;;;;;32.19;42.58;99653.75;108419;1276;22006;-76
2022/08/15 09:10:14;;;;;;;14.60;11.80;;;;;;;32.13;43.02;99653.66;108523;1276;22065;-75
2022/08/15 09:16:35;;;;;;;13.20;10.50;;;;;;;32.05;42.79;99653.38;108833;1270;23063;-76
2022/08/15 09:19:26;;;;;;;14.30;10.00;;;;;;;31.93;43.39;99650.56;108940;1270;21988;-75
2022/08/15 09:21:57;;;;;;;11.10;10.00;;;;;;;31.94;43.52;99651.40;109306;1264;23852;-77
2022/08/15 09:24:31;;;;;;;17.00;11.30;;;;;;;31.90;43.22;99657.02;109762;1261;21984;-75
2022/08/15 09:27:44;;;;;;;11.50;10.30;;;;;;;31.80;43.69;99650.83;110416;1250;21969;-77
2022/08/15 09:30:28;;;;;;;11.40;9.20;;;;;;;31.83;43.26;99643.92;110664;1253;22036;-76
2022/08/15 09:33:37;;;;;;;14.80;9.70;;;;;;;31.95;43.37;99648.27;110493;1250;21965;-76
2022/08/15 09:36:38;;;;;;;10.30;9.40;;;;;;;31.98;42.79;99647.91;110589;1250;21975;-76
2022/08/15 09:39:34;;;;;;;10.50;9.50;;;;;;;31.93;42.19;99650.27;110945;1250;22026;-76
2022/08/15 09:42:40;;;;;;;21.60;9.80;;;;;;;31.72;42.28;99641.64;110899;1250;21959;-76
2022/08/15 09:45:38;;;;;;;10.30;9.30;;;;;;;31.80;42.53;99636.30;110442;1257;21982;-75
2022/08/15 09:48:34;;;;;;;10.60;9.40;;;;;;;31.94;42.17;99635.87;109633;1262;21962;-75
2022/08/15 09:51:33;;;;;;;9.80;8.50;;;;;;;32.06;42.14;99636.63;109812;1261;21998;-76
2022/08/15 09:54:25;;;;;;;12.90;7.90;;;;;;;32.35;41.71;99640.98;109790;1261;22046;-78
2022/08/15 09:57:24;;;;;;;;;;;;;;;32.47;40.25;99639.48;109199;1267;21979;-75
2022/08/15 10:00:04;;;;;;;11.90;6.50;;;;;;;32.30;39.87;99635.46;109044;1267;21982;-74
2022/08/15 10:02:40;;;;;;;8.80;6.80;;;;;;;32.17;39.77;99629.23;109053;1268;22117;-76
2022/08/15 10:05:28;;;;;;;9.50;7.20;;;;;;;32.27;39.21;99626.09;108984;1270;23457;-75
2022/08/15 10:08:13;;;;;;;9.60;7.50;;;;;;;32.36;39.24;99622.89;109523;1264;22522;-76
2022/08/15 10:11:14;;;;;;;8.80;6.20;;;;;;;32.46;38.66;99621.57;109655;1261;21996;-76
2022/08/15 10:13:55;;;;;;;;;;;;;;;32.46;38.08;99622.05;108954;1268;21963;-77
2022/08/15 10:16:43;;;;;;;7.80;6.30;;;;;;;32.36;38.19;99614.79;109023;1267;21987;-74
2022/08/15 10:19:42;;;;;;;6.90;6.20;;;;;;;32.53;37.90;99612.61;108595;1271;23660;-75
2022/08/15 10:22:32;;;;;;;6.20;5.50;;;;;;;32.62;36.89;99612.59;108741;1270;21970;-75
2022/08/15 10:25:36;;;;;;;6.40;5.70;;;;;;;32.60;36.36;99613.66;109106;1267;21995;-76
2022/08/15 10:28:11;;;;;;;6.40;5.80;;;;;;;32.42;35.81;99609.62;109124;1267;23020;-77
2022/08/15 10:31:24;;;;;;;6.60;5.60;;;;;;;32.21;35.65;99599.96;109177;1267;21972;-77
2022/08/15 10:35:02;;;;;;;5.30;4.80;;;;;;;32.22;36.14;99595.68;108928;1267;23724;-76
2022/08/15 10:37:50;;;;;;;6.50;4.80;;;;;;;32.26;35.66;99599.54;109159;1262;21975;-76
2022/08/15 10:40:57;;;;;;;6.80;5.30;;;;;;;32.10;35.06;99595.55;109901;1258;22002;-76
2022/08/15 10:43:32;;;;;;;6.70;5.60;;;;;;;31.92;35.21;99591.56;110367;1256;21976;-76
2022/08/15 10:46:49;;;;;;;6.40;4.50;;;;;;;31.81;35.30;99593.10;110254;1256;21977;-75
2022/08/15 10:49:28;;;;;;;7.00;4.60;;;;;;;31.79;34.99;99597.47;110381;1257;21966;-75
2022/08/15 10:52:40;;;;;;;5.90;4.60;;;;;;;31.67;34.41;99596.44;110100;1259;21980;-77
2022/08/15 10:55:26;;;;;;;5.70;4.90;;;;;;;31.44;34.30;99594.01;109700;1262;23592;-77
2022/08/15 10:58:25;;;;;;;6.60;4.80;;;;;;;31.19;34.77;99593.00;109447;1262;23728;-76
2022/08/15 11:01:07;;;;;;;4.70;4.30;;;;;;;31.00;35.47;99589.40;108831;1270;22857;-76
2022/08/15 11:03:45;;;;;;;7.50;4.90;;;;;;;30.82;35.32;99591.20;108840;1270;23696;-76
2022/08/15 11:06:46;;;;;;;6.90;4.90;;;;;;;30.59;35.60;99587.70;108917;1270;22041;-75
2022/08/15 11:09:24;;;;;;;7.60;5.60;;;;;;;30.48;35.94;99584.05;108896;1270;22664;-76
2022/08/15 11:12:05;;;;;;;8.10;5.20;;;;;;;30.45;36.10;99583.89;109234;1264;22052;-75
2022/08/15 11:14:53;;;;;;;6.00;5.10;;;;;;;30.39;36.18;99580.05;109630;1262;21968;-76
2022/08/15 11:17:28;;;;;;;5.50;4.90;;;;;;;30.26;36.67;99580.60;109627;1263;21982;-76
2022/08/15 11:20:24;;;;;;;7.10;4.70;;;;;;;30.06;37.14;99583.42;109794;1259;22043;-77
2022/08/15 11:22:59;;;;;;;18.20;6.50;;;;;;;29.90;37.83;99582.27;110126;1257;21973;-78
2022/08/15 11:25:32;;;;;;;13.70;12.50;;;;;;;29.89;38.48;99577.48;110161;1256;24284;-75
2022/08/15 11:28:20;;;;;;;6.50;5.80;;;;;;;29.86;38.58;99577.20;110246;1259;22757;-77
2022/08/15 11:31:18;;;;;;;7.70;6.20;;;;;;;29.75;38.74;99576.02;110267;1257;24852;-78
2022/08/15 11:33:54;;;;;;;6.60;6.10;;;;;;;29.67;39.04;99574.20;110785;1250;21963;-77
2022/08/15 11:36:27;;;;;;;8.40;6.40;;;;;;;29.60;39.27;99576.61;110656;1250;21962;-77
2022/08/15 11:39:12;;;;;;;8.10;6.10;;;;;;;29.48;39.46;99570.00;110686;1250;21928;-76
2022/08/15 11:41:56;;;;;;;8.40;6.80;;;;;;;29.37;40.01;99564.30;110643;1250;21968;-77
2022/08/15 11:44:43;;;;;;;8.70;6.40;;;;;;;29.29;40.19;99557.09;110352;1256;21986;-76
2022/08/15 11:47:16;;;;;;;7.70;6.20;;;;;;;29.26;40.54;99560.59;109901;1260;22764;-76
2022/08/15 11:49:58;;;;;;;7.10;5.80;;;;;;;29.19;40.70;99562.69;109893;1261;22297;-77
2022/08/15 11:52:48;;;;;;;9.00;6.30;;;;;;;29.21;41.05;99552.31;109900;1259;23695;-76
2022/08/15 11:55:25;;;;;;;6.70;6.00;;;;;;;29.27;41.20;99548.66;109291;1265;23603;-75
2022/08/15 11:58:13;;;;;;;6.60;5.90;;;;;;;29.27;40.79;99553.40;108900;1270;22754;-76
2022/08/15 12:00:58;;;;;;;6.90;6.20;;;;;;;29.14;40.97;99543.66;108987;1268;21976;-75
2022/08/15 12:04:08;;;;;;;7.10;6.40;;;;;;;29.11;41.38;99544.04;108986;1267;22837;-75
2022/08/15 12:07:06;;;;;;;7.10;6.10;;;;;;;29.08;41.17;99551.83;109580;1263;21984;-80
2022/08/15 12:09:37;;;;;;;7.10;6.40;;;;;;;29.05;41.35;99550.96;109356;1264;21987;-76
2022/08/15 12:12:27;;;;;;;6.60;5.90;;;;;;;29.08;41.51;99548.41;109395;1261;21979;-76
2022/08/15 12:15:32;;;;;;;11.20;6.10;;;;;;;29.12;41.42;99546.61;110064;1256;21960;-77
2022/08/15 12:18:07;;;;;;;6.90;5.90;;;;;;;29.13;41.27;99538.15;110585;1250;21968;-76
2022/08/15 12:21:03;;;;;;;5.90;5.30;;;;;;;29.15;41.43;99538.16;110802;1250;22040;-77
2022/08/15 12:23:42;;;;;;;6.60;5.60;;;;;;;29.22;41.40;99544.35;110947;1250;22832;-77
2022/08/15 12:26:23;;;;;;;8.90;5.70;;;;;;;29.21;41.19;99537.68;109202;1257;1392336;-77
2022/08/15 12:29:12;;;;;;;8.10;5.70;;;;;;;29.19;41.35;99537.61;110180;1257;23084;-77
2022/08/15 12:31:42;;;;;;;7.40;6.00;;;;;;;29.17;41.18;99532.55;110244;1258;23118;-76
2022/08/15 12:34:19;;;;;;;6.80;6.10;;;;;;;29.17;41.25;99528.16;109844;1258;22059;-75
2022/08/15 12:37:03;;;;;;;7.30;6.60;;;;;;;29.19;41.24;99528.37;110272;1257;21990;-85
2022/08/15 12:39:52;;;;;;;7.30;6.00;;;;;;;29.14;40.98;99521.59;110144;1260;21979;-78
2022/08/15 12:42:35;;;;;;;6.70;6.10;;;;;;;29.12;41.45;99521.65;110050;1257;24312;-78
2022/08/15 12:45:27;;;;;;;9.00;6.40;;;;;;;29.12;41.58;99520.40;110572;1253;23047;-78
2022/08/15 12:48:25;;;;;;;6.70;6.10;;;;;;;29.13;41.64;99519.19;110614;1254;21954;-77
2022/08/15 12:51:12;;;;;;;9.90;5.80;;;;;;;29.14;41.79;99519.48;110815;1251;21957;-79
2022/08/15 12:53:41;;;;;;;7.00;6.40;;;;;;;29.17;41.75;99525.44;110588;1250;22334;-78
2022/08/15 12:56:17;;;;;;;6.30;5.70;;;;;;;29.19;41.63;99521.84;110107;1257;21962;-81
2022/08/15 12:59:05;;;;;;;9.60;6.50;;;;;;;29.20;41.65;99523.54;110142;1257;22434;-76
2022/08/15 13:01:45;;;;;;;14.10;7.10;;;;;;;29.19;41.74;99512.34;110262;1258;23037;-76